sensor_id;sensor_type;location;lat;lon;timestamp;P1;durP1;ratioP1;P2;durP2;ratioP2
70216;SDS011;65567;55.684;37.570;2023-04-03T00:00:42;10.50;;;6.38;;
70216;SDS011;65567;55.684;37.570;2023-04-03T00:03:08;10.70;;;7.10;;
70216;SDS011;65567;55.684;37.570;2023-04-03T00:05:34;10.85;;;6.30;;
70216;SDS011;65567;55.684;37.570;2023-04-03T00:08:00;12.90;;;6.43;;
70216;SDS011;65567;55.684;37.570;2023-04-03T00:10:27;10.45;;;7.63;;
70216;SDS011;65567;55.684;37.570;2023-04-03T00:12:53;11.65;;;7.38;;
70216;SDS011;65567;55.684;37.570;2023-04-03T00:15:19;11.25;;;7.30;;
70216;SDS011;65567;55.684;37.570;2023-04-03T00:17:45;13.35;;;7.22;;
70216;SDS011;65567;55.684;37.570;2023-04-03T00:20:11;10.82;;;7.07;;
70216;SDS011;65567;55.684;37.570;2023-04-03T00:22:37;11.90;;;6.57;;
70216;SDS011;65567;55.684;37.570;2023-04-03T00:25:03;10.90;;;7.53;;
70216;SDS011;65567;55.684;37.570;2023-04-03T00:27:29;13.32;;;7.53;;
70216;SDS011;65567;55.684;37.570;2023-04-03T00:29:55;16.98;;;7.95;;
70216;SDS011;65567;55.684;37.570;2023-04-03T00:32:21;13.30;;;7.40;;
70216;SDS011;65567;55.684;37.570;2023-04-03T00:34:46;14.32;;;7.50;;
70216;SDS011;65567;55.684;37.570;2023-04-03T00:37:12;10.35;;;7.70;;
70216;SDS011;65567;55.684;37.570;2023-04-03T00:39:38;11.45;;;8.65;;
70216;SDS011;65567;55.684;37.570;2023-04-03T00:42:04;11.93;;;8.32;;
70216;SDS011;65567;55.684;37.570;2023-04-03T00:46:59;14.88;;;8.38;;
70216;SDS011;65567;55.684;37.570;2023-04-03T00:49:26;14.63;;;8.10;;
70216;SDS011;65567;55.684;37.570;2023-04-03T00:51:53;15.43;;;7.68;;
70216;SDS011;65567;55.684;37.570;2023-04-03T00:54:20;15.60;;;7.75;;
70216;SDS011;65567;55.684;37.570;2023-04-03T00:56:47;15.25;;;8.13;;
70216;SDS011;65567;55.684;37.570;2023-04-03T00:59:16;14.95;;;8.10;;
70216;SDS011;65567;55.684;37.570;2023-04-03T01:01:52;15.68;;;8.23;;
70216;SDS011;65567;55.684;37.570;2023-04-03T01:04:35;13.68;;;8.10;;
70216;SDS011;65567;55.684;37.570;2023-04-03T01:07:17;16.98;;;9.10;;
70216;SDS011;65567;55.684;37.570;2023-04-03T01:09:46;15.43;;;7.95;;
70216;SDS011;65567;55.684;37.570;2023-04-03T01:12:18;16.05;;;8.52;;
70216;SDS011;65567;55.684;37.570;2023-04-03T01:14:49;12.55;;;8.45;;
70216;SDS011;65567;55.684;37.570;2023-04-03T01:17:27;15.02;;;8.32;;
70216;SDS011;65567;55.684;37.570;2023-04-03T01:25:40;12.90;;;7.75;;
70216;SDS011;65567;55.684;37.570;2023-04-03T01:28:15;12.52;;;8.02;;
70216;SDS011;65567;55.684;37.570;2023-04-03T01:31:40;16.17;;;8.18;;
70216;SDS011;65567;55.684;37.570;2023-04-03T01:33:44;13.05;;;7.63;;
70216;SDS011;65567;55.684;37.570;2023-04-03T01:36:14;12.77;;;7.85;;
70216;SDS011;65567;55.684;37.570;2023-04-03T01:38:45;12.05;;;8.23;;
70216;SDS011;65567;55.684;37.570;2023-04-03T01:41:12;14.02;;;8.07;;
70216;SDS011;65567;55.684;37.570;2023-04-03T01:43:37;12.40;;;7.43;;
70216;SDS011;65567;55.684;37.570;2023-04-03T01:46:03;10.75;;;7.45;;
70216;SDS011;65567;55.684;37.570;2023-04-03T01:48:29;12.63;;;7.75;;
70216;SDS011;65567;55.684;37.570;2023-04-03T01:50:55;12.45;;;8.35;;
70216;SDS011;65567;55.684;37.570;2023-04-03T01:53:21;10.90;;;8.05;;
70216;SDS011;65567;55.684;37.570;2023-04-03T01:55:47;12.15;;;7.80;;
70216;SDS011;65567;55.684;37.570;2023-04-03T01:58:13;10.57;;;7.43;;
70216;SDS011;65567;55.684;37.570;2023-04-03T02:00:39;9.32;;;7.13;;
70216;SDS011;65567;55.684;37.570;2023-04-03T02:03:05;14.40;;;7.38;;
70216;SDS011;65567;55.684;37.570;2023-04-03T02:05:32;13.30;;;8.07;;
70216;SDS011;65567;55.684;37.570;2023-04-03T02:07:58;10.65;;;6.88;;
70216;SDS011;65567;55.684;37.570;2023-04-03T02:10:24;15.82;;;7.20;;
70216;SDS011;65567;55.684;37.570;2023-04-03T02:12:50;11.20;;;7.65;;
70216;SDS011;65567;55.684;37.570;2023-04-03T02:15:16;10.63;;;7.32;;
70216;SDS011;65567;55.684;37.570;2023-04-03T02:17:42;12.93;;;7.95;;
70216;SDS011;65567;55.684;37.570;2023-04-03T02:20:09;11.10;;;8.00;;
70216;SDS011;65567;55.684;37.570;2023-04-03T02:22:35;13.25;;;7.70;;
70216;SDS011;65567;55.684;37.570;2023-04-03T02:25:01;14.32;;;7.78;;
70216;SDS011;65567;55.684;37.570;2023-04-03T02:27:27;15.25;;;8.88;;
70216;SDS011;65567;55.684;37.570;2023-04-03T02:29:53;15.75;;;8.45;;
70216;SDS011;65567;55.684;37.570;2023-04-03T02:32:19;15.20;;;7.93;;
70216;SDS011;65567;55.684;37.570;2023-04-03T02:34:45;18.20;;;7.75;;
70216;SDS011;65567;55.684;37.570;2023-04-03T02:37:11;14.20;;;8.00;;
70216;SDS011;65567;55.684;37.570;2023-04-03T02:39:37;12.73;;;8.00;;
70216;SDS011;65567;55.684;37.570;2023-04-03T02:42:03;16.00;;;8.68;;
70216;SDS011;65567;55.684;37.570;2023-04-03T02:44:29;13.63;;;8.52;;
70216;SDS011;65567;55.684;37.570;2023-04-03T02:46:55;15.77;;;8.35;;
70216;SDS011;65567;55.684;37.570;2023-04-03T02:49:20;15.85;;;9.45;;
70216;SDS011;65567;55.684;37.570;2023-04-03T02:51:46;16.60;;;8.80;;
70216;SDS011;65567;55.684;37.570;2023-04-03T02:54:12;15.45;;;9.63;;
70216;SDS011;65567;55.684;37.570;2023-04-03T02:56:38;13.63;;;9.60;;
70216;SDS011;65567;55.684;37.570;2023-04-03T02:59:04;17.67;;;9.95;;
70216;SDS011;65567;55.684;37.570;2023-04-03T03:01:31;15.25;;;10.25;;
70216;SDS011;65567;55.684;37.570;2023-04-03T03:03:58;17.00;;;9.63;;
70216;SDS011;65567;55.684;37.570;2023-04-03T03:06:25;20.40;;;10.02;;
70216;SDS011;65567;55.684;37.570;2023-04-03T03:08:51;16.42;;;10.73;;
70216;SDS011;65567;55.684;37.570;2023-04-03T03:11:17;15.88;;;9.88;;
70216;SDS011;65567;55.684;37.570;2023-04-03T03:13:43;16.25;;;10.30;;
70216;SDS011;65567;55.684;37.570;2023-04-03T03:16:09;16.13;;;10.10;;
70216;SDS011;65567;55.684;37.570;2023-04-03T03:18:35;17.98;;;10.90;;
70216;SDS011;65567;55.684;37.570;2023-04-03T03:21:01;16.52;;;9.88;;
70216;SDS011;65567;55.684;37.570;2023-04-03T03:23:29;16.52;;;10.52;;
70216;SDS011;65567;55.684;37.570;2023-04-03T03:26:04;19.38;;;10.73;;
70216;SDS011;65567;55.684;37.570;2023-04-03T03:28:32;16.38;;;10.52;;
70216;SDS011;65567;55.684;37.570;2023-04-03T03:30:58;17.40;;;11.13;;
70216;SDS011;65567;55.684;37.570;2023-04-03T03:33:25;18.98;;;12.02;;
70216;SDS011;65567;55.684;37.570;2023-04-03T03:35:51;19.15;;;10.82;;
70216;SDS011;65567;55.684;37.570;2023-04-03T03:38:18;15.18;;;9.35;;
70216;SDS011;65567;55.684;37.570;2023-04-03T03:40:46;23.42;;;10.45;;
70216;SDS011;65567;55.684;37.570;2023-04-03T03:43:13;17.48;;;11.07;;
70216;SDS011;65567;55.684;37.570;2023-04-03T03:45:40;18.73;;;11.38;;
70216;SDS011;65567;55.684;37.570;2023-04-03T03:48:05;17.88;;;10.80;;
70216;SDS011;65567;55.684;37.570;2023-04-03T03:50:31;19.55;;;11.40;;
70216;SDS011;65567;55.684;37.570;2023-04-03T03:52:57;18.15;;;11.20;;
70216;SDS011;65567;55.684;37.570;2023-04-03T03:55:23;18.65;;;11.48;;
70216;SDS011;65567;55.684;37.570;2023-04-03T03:57:49;20.20;;;12.75;;
70216;SDS011;65567;55.684;37.570;2023-04-03T04:00:15;20.60;;;13.45;;
70216;SDS011;65567;55.684;37.570;2023-04-03T04:02:41;20.10;;;12.43;;
70216;SDS011;65567;55.684;37.570;2023-04-03T04:05:08;17.52;;;11.98;;
70216;SDS011;65567;55.684;37.570;2023-04-03T04:07:34;18.38;;;11.15;;
70216;SDS011;65567;55.684;37.570;2023-04-03T04:10:01;21.63;;;12.77;;
70216;SDS011;65567;55.684;37.570;2023-04-03T04:12:28;20.00;;;11.65;;
70216;SDS011;65567;55.684;37.570;2023-04-03T04:14:54;20.80;;;12.20;;
70216;SDS011;65567;55.684;37.570;2023-04-03T04:17:20;16.98;;;9.35;;
70216;SDS011;65567;55.684;37.570;2023-04-03T04:19:47;24.38;;;11.10;;
70216;SDS011;65567;55.684;37.570;2023-04-03T04:22:12;19.63;;;12.65;;
70216;SDS011;65567;55.684;37.570;2023-04-03T04:24:38;19.10;;;11.68;;
70216;SDS011;65567;55.684;37.570;2023-04-03T04:27:04;19.90;;;11.52;;
70216;SDS011;65567;55.684;37.570;2023-04-03T04:29:30;19.80;;;12.73;;
70216;SDS011;65567;55.684;37.570;2023-04-03T04:32:01;18.25;;;12.10;;
70216;SDS011;65567;55.684;37.570;2023-04-03T04:34:27;21.30;;;12.20;;
70216;SDS011;65567;55.684;37.570;2023-04-03T04:36:54;19.73;;;12.07;;
70216;SDS011;65567;55.684;37.570;2023-04-03T04:39:20;24.05;;;12.18;;
70216;SDS011;65567;55.684;37.570;2023-04-03T04:41:46;20.77;;;11.93;;
70216;SDS011;65567;55.684;37.570;2023-04-03T04:44:12;20.40;;;12.25;;
70216;SDS011;65567;55.684;37.570;2023-04-03T04:46:38;19.73;;;11.65;;
70216;SDS011;65567;55.684;37.570;2023-04-03T04:49:03;19.98;;;12.32;;
70216;SDS011;65567;55.684;37.570;2023-04-03T04:51:29;15.77;;;10.35;;
70216;SDS011;65567;55.684;37.570;2023-04-03T04:53:55;18.75;;;11.10;;
70216;SDS011;65567;55.684;37.570;2023-04-03T04:56:21;21.05;;;11.60;;
70216;SDS011;65567;55.684;37.570;2023-04-03T04:58:46;21.30;;;11.10;;
70216;SDS011;65567;55.684;37.570;2023-04-03T05:01:12;18.23;;;12.00;;
70216;SDS011;65567;55.684;37.570;2023-04-03T05:03:38;20.60;;;11.88;;
70216;SDS011;65567;55.684;37.570;2023-04-03T05:06:04;19.55;;;10.85;;
70216;SDS011;65567;55.684;37.570;2023-04-03T05:08:30;22.27;;;12.45;;
70216;SDS011;65567;55.684;37.570;2023-04-03T05:10:57;21.75;;;11.63;;
70216;SDS011;65567;55.684;37.570;2023-04-03T05:13:23;21.00;;;11.77;;
70216;SDS011;65567;55.684;37.570;2023-04-03T05:15:48;19.00;;;10.70;;
70216;SDS011;65567;55.684;37.570;2023-04-03T05:18:14;16.77;;;10.85;;
70216;SDS011;65567;55.684;37.570;2023-04-03T05:20:40;24.35;;;11.98;;
70216;SDS011;65567;55.684;37.570;2023-04-03T05:23:06;19.88;;;10.68;;
70216;SDS011;65567;55.684;37.570;2023-04-03T05:25:32;20.33;;;12.57;;
70216;SDS011;65567;55.684;37.570;2023-04-03T05:27:58;21.33;;;12.07;;
70216;SDS011;65567;55.684;37.570;2023-04-03T05:30:24;17.98;;;10.82;;
70216;SDS011;65567;55.684;37.570;2023-04-03T05:32:49;20.60;;;11.43;;
70216;SDS011;65567;55.684;37.570;2023-04-03T05:35:15;20.73;;;11.02;;
70216;SDS011;65567;55.684;37.570;2023-04-03T05:37:41;25.83;;;11.50;;
70216;SDS011;65567;55.684;37.570;2023-04-03T05:40:07;21.35;;;12.10;;
70216;SDS011;65567;55.684;37.570;2023-04-03T05:42:34;27.10;;;11.77;;
70216;SDS011;65567;55.684;37.570;2023-04-03T05:45:00;20.40;;;11.20;;
70216;SDS011;65567;55.684;37.570;2023-04-03T05:47:25;23.65;;;11.80;;
70216;SDS011;65567;55.684;37.570;2023-04-03T05:49:51;20.25;;;11.35;;
70216;SDS011;65567;55.684;37.570;2023-04-03T05:52:22;19.95;;;10.82;;
70216;SDS011;65567;55.684;37.570;2023-04-03T05:54:52;20.27;;;12.23;;
70216;SDS011;65567;55.684;37.570;2023-04-03T05:57:19;19.63;;;11.45;;
70216;SDS011;65567;55.684;37.570;2023-04-03T05:59:45;19.90;;;11.07;;
70216;SDS011;65567;55.684;37.570;2023-04-03T06:02:12;20.73;;;11.70;;
70216;SDS011;65567;55.684;37.570;2023-04-03T06:04:39;22.58;;;12.05;;
70216;SDS011;65567;55.684;37.570;2023-04-03T06:07:05;23.85;;;12.27;;
70216;SDS011;65567;55.684;37.570;2023-04-03T06:09:32;24.13;;;11.50;;
70216;SDS011;65567;55.684;37.570;2023-04-03T06:11:58;27.98;;;12.70;;
70216;SDS011;65567;55.684;37.570;2023-04-03T06:14:25;23.42;;;11.75;;
70216;SDS011;65567;55.684;37.570;2023-04-03T06:16:52;24.55;;;11.88;;
70216;SDS011;65567;55.684;37.570;2023-04-03T06:19:19;32.28;;;12.75;;
70216;SDS011;65567;55.684;37.570;2023-04-03T06:21:46;32.65;;;14.10;;
70216;SDS011;65567;55.684;37.570;2023-04-03T06:24:15;21.67;;;11.20;;
70216;SDS011;65567;55.684;37.570;2023-04-03T06:26:42;17.48;;;9.88;;
70216;SDS011;65567;55.684;37.570;2023-04-03T06:29:08;22.38;;;10.48;;
70216;SDS011;65567;55.684;37.570;2023-04-03T06:31:35;30.42;;;12.70;;
70216;SDS011;65567;55.684;37.570;2023-04-03T06:34:04;19.52;;;11.35;;
70216;SDS011;65567;55.684;37.570;2023-04-03T06:36:31;22.17;;;11.85;;
70216;SDS011;65567;55.684;37.570;2023-04-03T06:38:57;23.38;;;10.95;;
70216;SDS011;65567;55.684;37.570;2023-04-03T06:41:23;22.88;;;11.05;;
70216;SDS011;65567;55.684;37.570;2023-04-03T06:43:51;19.58;;;11.88;;
70216;SDS011;65567;55.684;37.570;2023-04-03T06:46:18;23.27;;;11.68;;
70216;SDS011;65567;55.684;37.570;2023-04-03T06:48:48;27.27;;;12.35;;
70216;SDS011;65567;55.684;37.570;2023-04-03T06:51:18;21.35;;;11.90;;
70216;SDS011;65567;55.684;37.570;2023-04-03T06:53:47;26.38;;;12.57;;
70216;SDS011;65567;55.684;37.570;2023-04-03T06:56:13;19.13;;;10.95;;
70216;SDS011;65567;55.684;37.570;2023-04-03T06:58:40;16.42;;;11.30;;
70216;SDS011;65567;55.684;37.570;2023-04-03T07:01:06;22.58;;;11.75;;
70216;SDS011;65567;55.684;37.570;2023-04-03T07:03:34;23.85;;;12.63;;
70216;SDS011;65567;55.684;37.570;2023-04-03T07:06:02;27.02;;;12.32;;
70216;SDS011;65567;55.684;37.570;2023-04-03T07:08:28;18.55;;;11.27;;
70216;SDS011;65567;55.684;37.570;2023-04-03T07:10:55;19.10;;;11.88;;
70216;SDS011;65567;55.684;37.570;2023-04-03T07:13:21;21.20;;;10.88;;
70216;SDS011;65567;55.684;37.570;2023-04-03T07:15:47;20.05;;;11.02;;
70216;SDS011;65567;55.684;37.570;2023-04-03T07:18:13;23.23;;;12.40;;
70216;SDS011;65567;55.684;37.570;2023-04-03T07:20:39;23.38;;;11.60;;
70216;SDS011;65567;55.684;37.570;2023-04-03T07:23:06;25.85;;;11.80;;
70216;SDS011;65567;55.684;37.570;2023-04-03T07:25:32;23.42;;;12.02;;
70216;SDS011;65567;55.684;37.570;2023-04-03T07:28:01;22.80;;;11.02;;
70216;SDS011;65567;55.684;37.570;2023-04-03T07:30:27;21.45;;;11.00;;
70216;SDS011;65567;55.684;37.570;2023-04-03T07:32:53;22.33;;;11.82;;
70216;SDS011;65567;55.684;37.570;2023-04-03T07:35:20;19.45;;;11.23;;
70216;SDS011;65567;55.684;37.570;2023-04-03T07:37:46;22.02;;;10.77;;
70216;SDS011;65567;55.684;37.570;2023-04-03T07:40:12;26.15;;;11.10;;
70216;SDS011;65567;55.684;37.570;2023-04-03T07:42:38;15.52;;;8.85;;
70216;SDS011;65567;55.684;37.570;2023-04-03T07:45:04;20.83;;;10.20;;
70216;SDS011;65567;55.684;37.570;2023-04-03T07:47:31;19.08;;;9.25;;
70216;SDS011;65567;55.684;37.570;2023-04-03T07:49:57;19.83;;;10.32;;
70216;SDS011;65567;55.684;37.570;2023-04-03T07:52:23;28.40;;;10.13;;
70216;SDS011;65567;55.684;37.570;2023-04-03T07:54:49;20.63;;;10.45;;
70216;SDS011;65567;55.684;37.570;2023-04-03T07:57:15;20.88;;;10.65;;
70216;SDS011;65567;55.684;37.570;2023-04-03T07:59:41;20.08;;;10.57;;
70216;SDS011;65567;55.684;37.570;2023-04-03T08:02:11;23.23;;;11.77;;
70216;SDS011;65567;55.684;37.570;2023-04-03T08:04:37;22.63;;;10.98;;
70216;SDS011;65567;55.684;37.570;2023-04-03T08:07:04;30.05;;;11.38;;
70216;SDS011;65567;55.684;37.570;2023-04-03T08:09:30;29.38;;;11.50;;
70216;SDS011;65567;55.684;37.570;2023-04-03T08:11:57;33.92;;;12.75;;
70216;SDS011;65567;55.684;37.570;2023-04-03T08:14:24;29.77;;;12.50;;
70216;SDS011;65567;55.684;37.570;2023-04-03T08:16:50;40.15;;;13.00;;
70216;SDS011;65567;55.684;37.570;2023-04-03T08:19:16;32.88;;;13.23;;
70216;SDS011;65567;55.684;37.570;2023-04-03T08:21:43;67.25;;;16.27;;
70216;SDS011;65567;55.684;37.570;2023-04-03T08:24:10;31.05;;;13.18;;
70216;SDS011;65567;55.684;37.570;2023-04-03T08:26:36;32.65;;;13.73;;
70216;SDS011;65567;55.684;37.570;2023-04-03T08:29:02;27.60;;;13.05;;
70216;SDS011;65567;55.684;37.570;2023-04-03T08:31:29;25.38;;;12.82;;
70216;SDS011;65567;55.684;37.570;2023-04-03T08:33:56;28.33;;;14.23;;
70216;SDS011;65567;55.684;37.570;2023-04-03T08:36:24;33.70;;;13.15;;
70216;SDS011;65567;55.684;37.570;2023-04-03T08:38:52;26.08;;;13.82;;
70216;SDS011;65567;55.684;37.570;2023-04-03T08:41:35;26.08;;;13.50;;
70216;SDS011;65567;55.684;37.570;2023-04-03T08:49:35;26.50;;;13.10;;
70216;SDS011;65567;55.684;37.570;2023-04-03T08:52:09;26.80;;;13.73;;
70216;SDS011;65567;55.684;37.570;2023-04-03T08:54:53;28.30;;;13.65;;
70216;SDS011;65567;55.684;37.570;2023-04-03T08:57:32;42.65;;;15.40;;
70216;SDS011;65567;55.684;37.570;2023-04-03T09:02:41;31.60;;;13.98;;
70216;SDS011;65567;55.684;37.570;2023-04-03T09:05:18;21.02;;;8.80;;
70216;SDS011;65567;55.684;37.570;2023-04-03T09:17:23;21.75;;;12.93;;
70216;SDS011;65567;55.684;37.570;2023-04-03T09:22:41;20.02;;;11.60;;
70216;SDS011;65567;55.684;37.570;2023-04-03T09:25:27;23.40;;;12.90;;
70216;SDS011;65567;55.684;37.570;2023-04-03T09:28:01;20.08;;;12.45;;
70216;SDS011;65567;55.684;37.570;2023-04-03T09:30:28;24.38;;;12.43;;
70216;SDS011;65567;55.684;37.570;2023-04-03T09:32:55;22.98;;;12.13;;
70216;SDS011;65567;55.684;37.570;2023-04-03T09:35:26;28.13;;;13.65;;
70216;SDS011;65567;55.684;37.570;2023-04-03T09:37:59;22.63;;;12.85;;
70216;SDS011;65567;55.684;37.570;2023-04-03T09:40:28;23.65;;;13.15;;
70216;SDS011;65567;55.684;37.570;2023-04-03T09:42:58;23.90;;;12.53;;
70216;SDS011;65567;55.684;37.570;2023-04-03T09:45:27;25.58;;;13.25;;
70216;SDS011;65567;55.684;37.570;2023-04-03T09:48:07;25.23;;;14.05;;
70216;SDS011;65567;55.684;37.570;2023-04-03T09:50:34;31.08;;;14.65;;
70216;SDS011;65567;55.684;37.570;2023-04-03T09:53:12;23.10;;;12.82;;
70216;SDS011;65567;55.684;37.570;2023-04-03T09:56:03;27.47;;;14.30;;
70216;SDS011;65567;55.684;37.570;2023-04-03T09:58:49;23.02;;;12.85;;
70216;SDS011;65567;55.684;37.570;2023-04-03T10:01:39;20.70;;;13.27;;
70216;SDS011;65567;55.684;37.570;2023-04-03T10:04:18;23.38;;;12.73;;
70216;SDS011;65567;55.684;37.570;2023-04-03T10:06:46;20.88;;;11.48;;
70216;SDS011;65567;55.684;37.570;2023-04-03T10:12:03;21.73;;;12.32;;
70216;SDS011;65567;55.684;37.570;2023-04-03T10:14:38;22.20;;;12.10;;
70216;SDS011;65567;55.684;37.570;2023-04-03T10:23:13;20.45;;;11.10;;
70216;SDS011;65567;55.684;37.570;2023-04-03T10:34:28;18.15;;;10.57;;
70216;SDS011;65567;55.684;37.570;2023-04-03T10:46:02;17.27;;;10.52;;
70216;SDS011;65567;55.684;37.570;2023-04-03T10:54:01;19.33;;;11.40;;
70216;SDS011;65567;55.684;37.570;2023-04-03T10:56:41;16.25;;;9.98;;
70216;SDS011;65567;55.684;37.570;2023-04-03T11:04:40;18.27;;;10.30;;
70216;SDS011;65567;55.684;37.570;2023-04-03T11:09:47;15.43;;;9.75;;
70216;SDS011;65567;55.684;37.570;2023-04-03T11:12:25;15.98;;;9.60;;
70216;SDS011;65567;55.684;37.570;2023-04-03T11:15:02;14.10;;;9.30;;
70216;SDS011;65567;55.684;37.570;2023-04-03T11:20:28;20.33;;;10.95;;
70216;SDS011;65567;55.684;37.570;2023-04-03T11:23:06;15.57;;;9.50;;
70216;SDS011;65567;55.684;37.570;2023-04-03T11:25:38;19.00;;;10.63;;
70216;SDS011;65567;55.684;37.570;2023-04-03T11:28:12;18.73;;;10.38;;
70216;SDS011;65567;55.684;37.570;2023-04-03T11:36:49;18.90;;;8.85;;
70216;SDS011;65567;55.684;37.570;2023-04-03T11:41:55;17.90;;;10.25;;
70216;SDS011;65567;55.684;37.570;2023-04-03T11:44:43;19.40;;;9.82;;
70216;SDS011;65567;55.684;37.570;2023-04-03T11:47:09;18.30;;;10.20;;
70216;SDS011;65567;55.684;37.570;2023-04-03T11:49:57;21.75;;;9.75;;
70216;SDS011;65567;55.684;37.570;2023-04-03T12:05:48;22.95;;;10.32;;
70216;SDS011;65567;55.684;37.570;2023-04-03T12:08:21;18.58;;;10.18;;
70216;SDS011;65567;55.684;37.570;2023-04-03T12:16:22;19.73;;;10.35;;
70216;SDS011;65567;55.684;37.570;2023-04-03T12:21:14;28.80;;;10.63;;
70216;SDS011;65567;55.684;37.570;2023-04-03T12:26:51;24.25;;;10.30;;
70216;SDS011;65567;55.684;37.570;2023-04-03T12:37:44;18.20;;;7.97;;
70216;SDS011;65567;55.684;37.570;2023-04-03T12:46:00;12.45;;;5.93;;
70216;SDS011;65567;55.684;37.570;2023-04-03T12:48:37;12.13;;;5.35;;
70216;SDS011;65567;55.684;37.570;2023-04-03T12:51:13;10.32;;;4.97;;
70216;SDS011;65567;55.684;37.570;2023-04-03T12:53:42;10.38;;;6.30;;
70216;SDS011;65567;55.684;37.570;2023-04-03T12:58:48;6.95;;;3.85;;
70216;SDS011;65567;55.684;37.570;2023-04-03T13:01:16;10.38;;;5.63;;
70216;SDS011;65567;55.684;37.570;2023-04-03T13:03:44;9.88;;;5.50;;
70216;SDS011;65567;55.684;37.570;2023-04-03T13:06:22;12.55;;;6.10;;
70216;SDS011;65567;55.684;37.570;2023-04-03T13:08:56;14.20;;;5.97;;
70216;SDS011;65567;55.684;37.570;2023-04-03T13:11:24;12.60;;;5.80;;
70216;SDS011;65567;55.684;37.570;2023-04-03T13:13:58;16.05;;;5.53;;
70216;SDS011;65567;55.684;37.570;2023-04-03T13:16:31;17.02;;;5.50;;
70216;SDS011;65567;55.684;37.570;2023-04-03T13:18:58;14.70;;;4.53;;
70216;SDS011;65567;55.684;37.570;2023-04-03T13:21:26;18.05;;;5.90;;
70216;SDS011;65567;55.684;37.570;2023-04-03T13:23:56;17.60;;;5.07;;
70216;SDS011;65567;55.684;37.570;2023-04-03T13:26:26;15.13;;;5.70;;
70216;SDS011;65567;55.684;37.570;2023-04-03T13:29:37;15.70;;;4.65;;
70216;SDS011;65567;55.684;37.570;2023-04-03T13:31:46;26.08;;;7.07;;
70216;SDS011;65567;55.684;37.570;2023-04-03T13:34:19;12.55;;;5.18;;
70216;SDS011;65567;55.684;37.570;2023-04-03T13:36:57;16.25;;;5.10;;
70216;SDS011;65567;55.684;37.570;2023-04-03T13:39:26;17.02;;;6.70;;
70216;SDS011;65567;55.684;37.570;2023-04-03T13:42:02;9.45;;;5.03;;
70216;SDS011;65567;55.684;37.570;2023-04-03T13:44:41;19.35;;;6.35;;
70216;SDS011;65567;55.684;37.570;2023-04-03T13:49:40;7.85;;;4.93;;
70216;SDS011;65567;55.684;37.570;2023-04-03T13:52:32;13.30;;;5.55;;
70216;SDS011;65567;55.684;37.570;2023-04-03T13:55:26;12.13;;;5.13;;
70216;SDS011;65567;55.684;37.570;2023-04-03T13:58:01;18.13;;;5.50;;
70216;SDS011;65567;55.684;37.570;2023-04-03T14:00:37;10.32;;;5.07;;
70216;SDS011;65567;55.684;37.570;2023-04-03T14:05:47;11.43;;;5.60;;
70216;SDS011;65567;55.684;37.570;2023-04-03T14:08:17;11.27;;;5.35;;
70216;SDS011;65567;55.684;37.570;2023-04-03T14:10:44;10.70;;;5.35;;
70216;SDS011;65567;55.684;37.570;2023-04-03T14:13:14;12.80;;;5.97;;
70216;SDS011;65567;55.684;37.570;2023-04-03T14:15:42;12.75;;;6.00;;
70216;SDS011;65567;55.684;37.570;2023-04-03T14:18:12;17.08;;;6.30;;
70216;SDS011;65567;55.684;37.570;2023-04-03T14:20:42;10.60;;;6.05;;
70216;SDS011;65567;55.684;37.570;2023-04-03T14:23:09;13.80;;;5.67;;
70216;SDS011;65567;55.684;37.570;2023-04-03T14:25:36;17.13;;;6.82;;
70216;SDS011;65567;55.684;37.570;2023-04-03T14:28:19;11.25;;;6.00;;
70216;SDS011;65567;55.684;37.570;2023-04-03T14:30:49;14.02;;;6.38;;
70216;SDS011;65567;55.684;37.570;2023-04-03T14:33:17;13.25;;;5.85;;
70216;SDS011;65567;55.684;37.570;2023-04-03T14:35:45;14.48;;;6.57;;
70216;SDS011;65567;55.684;37.570;2023-04-03T14:38:23;15.93;;;6.75;;
70216;SDS011;65567;55.684;37.570;2023-04-03T14:40:52;11.88;;;6.30;;
70216;SDS011;65567;55.684;37.570;2023-04-03T14:43:20;12.48;;;6.28;;
70216;SDS011;65567;55.684;37.570;2023-04-03T14:45:48;14.65;;;6.95;;
70216;SDS011;65567;55.684;37.570;2023-04-03T14:48:22;11.75;;;6.20;;
70216;SDS011;65567;55.684;37.570;2023-04-03T14:50:50;11.52;;;6.40;;
70216;SDS011;65567;55.684;37.570;2023-04-03T14:53:17;12.77;;;6.72;;
70216;SDS011;65567;55.684;37.570;2023-04-03T14:55:48;13.95;;;5.65;;
70216;SDS011;65567;55.684;37.570;2023-04-03T14:58:15;13.15;;;6.72;;
70216;SDS011;65567;55.684;37.570;2023-04-03T15:00:44;15.75;;;6.40;;
70216;SDS011;65567;55.684;37.570;2023-04-03T15:03:17;13.23;;;6.03;;
70216;SDS011;65567;55.684;37.570;2023-04-03T15:05:45;11.82;;;5.85;;
70216;SDS011;65567;55.684;37.570;2023-04-03T15:08:21;14.50;;;6.13;;
70216;SDS011;65567;55.684;37.570;2023-04-03T15:10:52;9.95;;;5.50;;
70216;SDS011;65567;55.684;37.570;2023-04-03T15:13:20;11.50;;;6.15;;
70216;SDS011;65567;55.684;37.570;2023-04-03T15:15:47;14.25;;;6.40;;
70216;SDS011;65567;55.684;37.570;2023-04-03T15:18:24;7.25;;;5.18;;
70216;SDS011;65567;55.684;37.570;2023-04-03T15:20:52;14.65;;;5.75;;
70216;SDS011;65567;55.684;37.570;2023-04-03T15:23:20;17.48;;;6.72;;
70216;SDS011;65567;55.684;37.570;2023-04-03T15:25:51;12.68;;;6.60;;
70216;SDS011;65567;55.684;37.570;2023-04-03T15:28:22;16.70;;;6.57;;
70216;SDS011;65567;55.684;37.570;2023-04-03T15:30:53;14.15;;;7.10;;
70216;SDS011;65567;55.684;37.570;2023-04-03T15:33:18;12.27;;;7.32;;
70216;SDS011;65567;55.684;37.570;2023-04-03T15:35:48;13.73;;;6.40;;
70216;SDS011;65567;55.684;37.570;2023-04-03T15:38:14;15.02;;;7.20;;
70216;SDS011;65567;55.684;37.570;2023-04-03T15:40:40;18.02;;;8.35;;
70216;SDS011;65567;55.684;37.570;2023-04-03T15:43:09;17.40;;;7.57;;
70216;SDS011;65567;55.684;37.570;2023-04-03T15:45:35;14.70;;;7.55;;
70216;SDS011;65567;55.684;37.570;2023-04-03T15:48:03;13.90;;;7.93;;
70216;SDS011;65567;55.684;37.570;2023-04-03T15:50:31;13.98;;;7.18;;
70216;SDS011;65567;55.684;37.570;2023-04-03T15:52:59;14.68;;;7.90;;
70216;SDS011;65567;55.684;37.570;2023-04-03T15:55:28;11.38;;;7.50;;
70216;SDS011;65567;55.684;37.570;2023-04-03T15:57:55;15.35;;;7.60;;
70216;SDS011;65567;55.684;37.570;2023-04-03T16:00:22;16.08;;;7.32;;
70216;SDS011;65567;55.684;37.570;2023-04-03T16:02:50;20.92;;;6.95;;
70216;SDS011;65567;55.684;37.570;2023-04-03T16:05:27;18.42;;;7.88;;
70216;SDS011;65567;55.684;37.570;2023-04-03T16:07:53;15.82;;;8.45;;
70216;SDS011;65567;55.684;37.570;2023-04-03T16:10:20;15.55;;;7.65;;
70216;SDS011;65567;55.684;37.570;2023-04-03T16:12:47;20.98;;;7.85;;
70216;SDS011;65567;55.684;37.570;2023-04-03T16:15:12;18.02;;;8.25;;
70216;SDS011;65567;55.684;37.570;2023-04-03T16:17:39;15.85;;;7.32;;
70216;SDS011;65567;55.684;37.570;2023-04-03T16:20:06;18.90;;;7.60;;
70216;SDS011;65567;55.684;37.570;2023-04-03T16:22:33;17.27;;;7.57;;
70216;SDS011;65567;55.684;37.570;2023-04-03T16:25:00;21.70;;;7.50;;
70216;SDS011;65567;55.684;37.570;2023-04-03T16:27:27;19.33;;;8.30;;
70216;SDS011;65567;55.684;37.570;2023-04-03T16:29:55;17.40;;;7.80;;
70216;SDS011;65567;55.684;37.570;2023-04-03T16:32:22;14.63;;;7.18;;